createdAt,value
2023-03-05T00:02:09.939Z,65.45
2023-03-05T00:04:36.951Z,65.63
2023-03-05T00:07:03.779Z,65.62
2023-03-05T00:09:30.603Z,65.57
2023-03-05T00:11:57.656Z,65.42
2023-03-05T00:14:24.507Z,65.48
2023-03-05T00:16:51.292Z,65.55
2023-03-05T00:19:18.337Z,65.62
2023-03-05T00:21:45.507Z,65.79
2023-03-05T00:24:17.359Z,65.86
2023-03-05T00:26:45.245Z,65.81
2023-03-05T00:29:15.646Z,65.78
2023-03-05T00:31:45.590Z,66.00
2023-03-05T00:34:14.824Z,65.94
2023-03-05T00:36:47.639Z,66.17
2023-03-05T00:39:15.424Z,66.14
2023-03-05T00:41:42.338Z,66.17
2023-03-05T00:44:09.302Z,66.16
2023-03-05T00:46:36.468Z,66.29
2023-03-05T00:49:03.959Z,66.34
2023-03-05T00:51:30.798Z,66.30
2023-03-05T00:53:57.632Z,66.69
2023-03-05T00:56:24.598Z,66.91
2023-03-05T00:58:51.802Z,66.82
2023-03-05T01:01:18.768Z,66.87
2023-03-05T01:03:45.725Z,66.65
2023-03-05T01:06:14.195Z,66.74
2023-03-05T01:08:41.242Z,67.01
2023-03-05T01:11:08.573Z,67.12
2023-03-05T01:13:36.235Z,66.93
2023-03-05T01:16:04.130Z,66.82
2023-03-05T01:18:31.158Z,66.88
2023-03-05T01:20:57.895Z,66.91
2023-03-05T01:23:24.679Z,66.97
2023-03-05T01:25:56.837Z,67.12
2023-03-05T01:28:23.854Z,67.00
2023-03-05T01:30:50.730Z,67.12
2023-03-05T01:33:18.047Z,67.16
2023-03-05T01:35:47.891Z,67.08
2023-03-05T01:38:15.528Z,67.10
2023-03-05T01:40:43.809Z,66.91
2023-03-05T01:43:13.391Z,67.24
2023-03-05T01:46:18.575Z,67.24
2023-03-05T01:48:49.925Z,66.97
2023-03-05T01:51:20.528Z,67.20
2023-03-05T01:53:47.903Z,67.13
2023-03-05T01:56:15.076Z,66.98
2023-03-05T01:58:41.975Z,67.41
2023-03-05T02:01:09.562Z,67.48
2023-03-05T02:03:37.108Z,67.21
2023-03-05T02:06:04.065Z,67.28
2023-03-05T02:08:30.850Z,67.33
2023-03-05T02:10:57.814Z,67.42
2023-03-05T02:13:28.321Z,67.47
2023-03-05T02:15:58.210Z,67.52
2023-03-05T02:18:26.026Z,67.52
2023-03-05T02:20:55.786Z,67.61
2023-03-05T02:23:28.198Z,67.72
2023-03-05T02:25:55.277Z,67.84
2023-03-05T02:28:27.764Z,67.95
2023-03-05T02:30:54.998Z,67.96
2023-03-05T02:33:22.500Z,68.09
2023-03-05T02:35:49.815Z,68.26
2023-03-05T02:38:19.260Z,67.85
2023-03-05T02:40:46.058Z,67.98
2023-03-05T02:43:14.386Z,68.22
2023-03-05T02:45:41.297Z,68.05
2023-03-05T02:48:08.107Z,68.15
2023-03-05T02:50:35.641Z,68.24
2023-03-05T02:53:03.217Z,67.91
2023-03-05T02:55:30.105Z,67.81
2023-03-05T02:57:56.851Z,68.08
2023-03-05T03:00:23.743Z,68.33
2023-03-05T03:02:50.548Z,68.15
2023-03-05T03:05:17.394Z,68.12
2023-03-05T03:07:44.154Z,68.32
2023-03-05T03:10:11.518Z,68.22
2023-03-05T03:12:40.084Z,68.30
2023-03-05T03:15:08.516Z,68.09
2023-03-05T03:17:36.777Z,68.15
2023-03-05T03:20:06.162Z,68.09
2023-03-05T03:22:33.218Z,68.06
2023-03-05T03:25:01.366Z,67.91
2023-03-05T03:27:28.087Z,67.98
2023-03-05T03:29:54.835Z,67.74
2023-03-05T03:32:21.655Z,67.60
2023-03-05T03:34:48.424Z,67.63
2023-03-05T03:37:15.131Z,67.63
2023-03-05T03:39:41.855Z,67.43
2023-03-05T03:42:08.668Z,67.40
2023-03-05T03:44:35.370Z,67.39
2023-03-05T03:47:02.708Z,67.16
2023-03-05T03:49:29.448Z,67.32
2023-03-05T03:51:56.159Z,67.28
2023-03-05T03:54:22.996Z,67.18
2023-03-05T03:56:49.966Z,67.05
2023-03-05T03:59:16.966Z,67.13
2023-03-05T04:01:43.678Z,67.24
2023-03-05T04:04:12.471Z,67.22
2023-03-05T04:06:39.259Z,67.35
2023-03-05T04:09:08.187Z,67.22
2023-03-05T04:11:38.311Z,67.05
2023-03-05T04:14:05.789Z,67.00
2023-03-05T04:16:32.580Z,66.88
2023-03-05T04:18:59.294Z,67.07
2023-03-05T04:21:26.040Z,66.83
2023-03-05T04:23:52.790Z,66.98
2023-03-05T04:26:19.555Z,66.83
2023-03-05T04:28:48.433Z,66.80
2023-03-05T04:31:15.248Z,66.83
2023-03-05T04:33:42.047Z,66.75
2023-03-05T04:36:09.067Z,66.67
2023-03-05T04:38:35.774Z,66.66
2023-03-05T04:41:02.489Z,66.55
2023-03-05T04:43:29.219Z,66.54
2023-03-05T04:45:56.118Z,66.74
2023-03-05T04:48:22.780Z,66.41
2023-03-05T04:50:49.651Z,66.38
2023-03-05T04:53:16.651Z,66.28
2023-03-05T04:55:43.995Z,66.28
2023-03-05T04:58:10.853Z,66.38
2023-03-05T05:00:37.586Z,66.20
2023-03-05T05:03:04.361Z,66.22
2023-03-05T05:05:31.223Z,66.28
2023-03-05T05:07:58.826Z,66.23
2023-03-05T05:10:26.938Z,66.10
2023-03-05T05:12:54.006Z,66.24
2023-03-05T05:15:21.092Z,66.10
2023-03-05T05:17:48.247Z,66.11
2023-03-05T05:20:16.805Z,66.21
2023-03-05T05:22:44.051Z,66.12
2023-03-05T05:25:13.057Z,66.01
2023-03-05T05:27:40.474Z,66.01
2023-03-05T05:30:08.400Z,66.04
2023-03-05T05:32:35.488Z,65.96
2023-03-05T05:35:03.929Z,66.01
2023-03-05T05:37:30.856Z,65.93
2023-03-05T05:39:57.707Z,65.99
2023-03-05T05:42:25.427Z,65.86
2023-03-05T05:44:52.498Z,65.82
2023-03-05T05:47:20.294Z,65.94
2023-03-05T05:49:49.407Z,65.77
2023-03-05T05:52:16.769Z,65.92
2023-03-05T05:54:43.599Z,65.67
2023-03-05T05:57:10.370Z,65.81
2023-03-05T05:59:38.347Z,65.64
2023-03-05T06:02:06.230Z,65.78
2023-03-05T06:04:32.987Z,65.49
2023-03-05T06:07:00.167Z,65.55
2023-03-05T06:09:27.332Z,65.65
2023-03-05T06:11:54.042Z,65.50
2023-03-05T06:14:20.870Z,65.24
2023-03-05T06:16:47.688Z,65.44
2023-03-05T06:19:15.968Z,65.55
2023-03-05T06:21:43.718Z,65.32
2023-03-05T06:24:10.837Z,64.91
2023-03-05T06:26:37.876Z,65.02
2023-03-05T06:29:04.796Z,65.12
2023-03-05T06:31:31.761Z,64.92
2023-03-05T06:34:03.731Z,64.67
2023-03-05T06:36:31.056Z,64.59
2023-03-05T06:38:58.613Z,64.66
2023-03-05T06:41:28.490Z,64.61
2023-03-05T06:43:56.208Z,64.46
2023-03-05T06:46:27.025Z,64.35
2023-03-05T06:48:57.202Z,64.40
2023-03-05T06:51:30.748Z,64.15
2023-03-05T06:54:01.942Z,64.10
2023-03-05T06:56:28.772Z,64.11
2023-03-05T06:58:55.517Z,63.82
2023-03-05T07:01:23.724Z,63.81
2023-03-05T07:03:55.066Z,63.67
2023-03-05T07:06:22.391Z,63.49
2023-03-05T07:08:49.095Z,63.44
2023-03-05T07:11:18.541Z,63.48
2023-03-05T07:13:47.991Z,63.35
2023-03-05T07:16:23.702Z,63.25
2023-03-05T07:18:50.867Z,63.30
2023-03-05T07:21:21.769Z,63.24
2023-03-05T07:23:49.381Z,63.15
2023-03-05T07:26:16.686Z,63.28
2023-03-05T07:28:43.587Z,62.99
2023-03-05T07:31:16.326Z,63.03
2023-03-05T07:33:43.448Z,62.88
2023-03-05T07:36:10.957Z,62.84
2023-03-05T07:38:38.068Z,62.87
2023-03-05T07:41:10.359Z,62.76
2023-03-05T07:43:37.597Z,62.67
2023-03-05T07:46:09.707Z,62.61
2023-03-05T07:48:36.568Z,62.57
2023-03-05T07:51:04.958Z,62.40
2023-03-05T07:53:34.069Z,62.49
2023-03-05T07:56:03.361Z,62.25
2023-03-05T07:58:30.030Z,62.11
2023-03-05T08:00:56.706Z,61.97
2023-03-05T08:03:23.419Z,61.81
2023-03-05T08:05:50.189Z,61.73
2023-03-05T08:08:17.110Z,61.67
2023-03-05T08:10:43.793Z,61.53
2023-03-05T08:13:10.907Z,61.57
2023-03-05T08:15:38.227Z,61.56
2023-03-05T08:18:05.393Z,61.49
2023-03-05T08:20:35.323Z,61.64
2023-03-05T08:23:03.376Z,61.85
2023-03-05T08:25:30.198Z,61.74
2023-03-05T08:27:57.070Z,61.61
2023-03-05T08:30:27.701Z,62.06
2023-03-05T08:32:54.875Z,62.00
2023-03-05T08:35:22.082Z,62.21
2023-03-05T08:37:48.953Z,62.29
2023-03-05T08:40:18.209Z,62.67
2023-03-05T08:42:45.224Z,62.43
2023-03-05T08:45:12.766Z,62.95
2023-03-05T08:47:40.033Z,63.31
2023-03-05T08:50:07.156Z,63.31
2023-03-05T08:52:33.883Z,63.24
2023-03-05T08:55:00.818Z,63.29
2023-03-05T08:57:27.545Z,62.71
2023-03-05T08:59:54.312Z,62.46
2023-03-05T09:02:21.050Z,62.45
2023-03-05T09:04:47.729Z,62.37
2023-03-05T09:07:14.469Z,62.20
2023-03-05T09:09:41.318Z,61.83
2023-03-05T09:12:12.025Z,61.19
2023-03-05T09:14:40.267Z,60.68
2023-03-05T09:17:07.224Z,60.69
2023-03-05T09:19:34.153Z,59.38
2023-03-05T09:22:00.906Z,59.62
2023-03-05T09:24:28.344Z,59.62
2023-03-05T09:26:58.716Z,59.04
2023-03-05T09:29:26.914Z,57.81
2023-03-05T09:31:54.576Z,58.19
2023-03-05T09:34:22.054Z,58.31
2023-03-05T09:36:48.963Z,57.83
2023-03-05T09:39:16.318Z,57.97
2023-03-05T09:41:45.870Z,57.59
2023-03-05T09:44:22.659Z,57.69
2023-03-05T09:47:07.674Z,57.90
2023-03-05T09:50:05.184Z,57.47
2023-03-05T09:52:57.246Z,57.35
2023-03-05T09:55:50.227Z,57.55
2023-03-05T09:58:37.028Z,56.96
2023-03-05T10:01:10.195Z,56.85
2023-03-05T10:04:04.069Z,56.28
2023-03-05T10:06:49.007Z,56.48
2023-03-05T10:10:00.970Z,56.49
2023-03-05T10:12:42.517Z,55.83
2023-03-05T10:15:14.243Z,56.01
2023-03-05T10:18:12.961Z,55.90
2023-03-05T10:20:52.067Z,55.75
2023-03-05T10:23:28.814Z,55.49
2023-03-05T10:26:02.151Z,55.65
2023-03-05T10:28:48.671Z,55.63
2023-03-05T10:31:18.103Z,55.87
2023-03-05T10:34:08.806Z,55.42
2023-03-05T10:36:59.026Z,55.39
2023-03-05T10:39:51.869Z,55.80
2023-03-05T10:42:49.147Z,55.95
2023-03-05T10:45:23.820Z,56.39
2023-03-05T10:48:06.082Z,56.33
2023-03-05T10:51:04.982Z,56.48
2023-03-05T10:53:50.348Z,55.99
2023-03-05T10:56:21.695Z,55.95
2023-03-05T10:58:48.608Z,56.15
2023-03-05T11:01:18.145Z,56.04
2023-03-05T11:03:58.300Z,56.11
2023-03-05T11:06:41.171Z,56.37
2023-03-05T11:09:16.746Z,56.51
2023-03-05T11:11:44.710Z,56.56
2023-03-05T11:14:31.072Z,56.16
2023-03-05T11:16:57.900Z,56.29
2023-03-05T11:19:33.282Z,56.32
2023-03-05T11:22:20.634Z,56.10
2023-03-05T11:25:10.428Z,56.32
2023-03-05T11:27:42.158Z,56.37
2023-03-05T11:30:30.533Z,55.75
2023-03-05T11:33:10.480Z,55.44
2023-03-05T11:35:42.142Z,56.03
2023-03-05T11:38:44.064Z,55.56
2023-03-05T11:41:12.095Z,55.78
2023-03-05T11:43:41.663Z,55.56
2023-03-05T11:46:14.795Z,55.42
2023-03-05T11:48:45.214Z,55.47
2023-03-05T11:51:20.839Z,55.67
2023-03-05T11:53:52.975Z,55.69
2023-03-05T11:56:28.040Z,55.71
2023-03-05T11:59:03.037Z,55.47
2023-03-05T12:01:32.943Z,55.65
2023-03-05T12:04:00.585Z,55.74
2023-03-05T12:06:35.049Z,55.85
2023-03-05T12:09:21.301Z,55.62
2023-03-05T12:11:54.171Z,55.84
2023-03-05T12:14:42.180Z,56.17
2023-03-05T12:17:29.025Z,56.25
2023-03-05T12:20:17.727Z,56.00
2023-03-05T12:22:45.268Z,56.12
2023-03-05T12:25:35.078Z,56.36
2023-03-05T12:28:02.865Z,56.70
2023-03-05T12:30:35.410Z,56.17
2023-03-05T12:33:03.654Z,55.75
2023-03-05T12:35:41.208Z,55.10
2023-03-05T12:38:33.045Z,54.01
2023-03-05T12:41:18.268Z,54.39
2023-03-05T12:43:44.981Z,54.34
2023-03-05T12:46:26.603Z,54.18
2023-03-05T12:48:53.276Z,54.32
2023-03-05T12:51:39.708Z,54.46
2023-03-05T12:54:28.706Z,54.07
2023-03-05T12:56:59.347Z,53.47
2023-03-05T12:59:39.458Z,52.96
2023-03-05T13:02:23.358Z,51.80
2023-03-05T13:04:53.320Z,51.97
2023-03-05T13:07:20.065Z,51.99
2023-03-05T13:09:58.013Z,51.37
2023-03-05T13:12:27.759Z,52.08
2023-03-05T13:15:08.908Z,51.88
2023-03-05T13:17:44.552Z,52.00
2023-03-05T13:20:42.798Z,51.32
2023-03-05T13:23:22.624Z,51.35
2023-03-05T13:26:13.246Z,51.54
2023-03-05T13:28:40.224Z,51.99
2023-03-05T13:31:13.063Z,52.06
2023-03-05T13:33:39.909Z,52.27
2023-03-05T13:36:07.048Z,51.76
2023-03-05T13:38:43.383Z,51.96
2023-03-05T13:41:15.973Z,51.57
2023-03-05T13:43:51.588Z,51.19
2023-03-05T13:46:29.313Z,50.76
2023-03-05T13:48:57.140Z,50.14
2023-03-05T13:51:24.059Z,50.20
2023-03-05T13:53:51.280Z,50.31
2023-03-05T13:56:20.373Z,49.46
2023-03-05T13:58:55.055Z,49.47
2023-03-05T14:01:25.992Z,49.20
2023-03-05T14:03:53.959Z,49.12
2023-03-05T14:06:27.232Z,49.84
2023-03-05T14:09:05.225Z,49.56
2023-03-05T14:11:32.263Z,49.69
2023-03-05T14:14:15.545Z,49.44
2023-03-05T14:16:49.870Z,49.56
2023-03-05T14:19:38.577Z,49.68
2023-03-05T14:22:06.338Z,49.27
2023-03-05T14:24:34.129Z,48.84
2023-03-05T14:27:13.313Z,48.99
2023-03-05T14:29:45.810Z,48.88
2023-03-05T14:32:39.017Z,48.89
2023-03-05T14:35:06.692Z,48.88
2023-03-05T14:37:41.601Z,48.95
2023-03-05T14:40:20.705Z,49.08
2023-03-05T14:43:00.892Z,49.41
2023-03-05T14:45:34.422Z,49.21
2023-03-05T14:48:03.613Z,49.36
2023-03-05T14:50:53.193Z,49.04
2023-03-05T14:53:31.748Z,49.07
2023-03-05T14:55:58.524Z,49.01
2023-03-05T14:58:28.378Z,49.22
2023-03-05T15:00:55.782Z,48.84
2023-03-05T15:03:23.432Z,48.59
2023-03-05T15:05:53.248Z,48.71
2023-03-05T15:08:26.919Z,48.71
2023-03-05T15:10:54.161Z,48.52
2023-03-05T15:13:20.992Z,48.03
2023-03-05T15:15:50.161Z,48.26
2023-03-05T15:18:19.259Z,48.17
2023-03-05T15:20:48.818Z,47.05
2023-03-05T15:23:16.031Z,47.85
2023-03-05T15:25:43.282Z,47.43
2023-03-05T15:28:10.119Z,47.51
2023-03-05T15:30:44.273Z,47.93
2023-03-05T15:33:14.141Z,48.22
2023-03-05T15:35:42.998Z,48.05
2023-03-05T15:38:11.216Z,48.52
2023-03-05T15:40:37.998Z,48.45
2023-03-05T15:43:04.769Z,48.66
2023-03-05T15:45:31.595Z,48.94
2023-03-05T15:47:58.941Z,49.09
2023-03-05T15:50:25.803Z,49.32
2023-03-05T15:52:52.568Z,49.30
2023-03-05T15:55:19.546Z,49.34
2023-03-05T15:57:49.340Z,49.64
2023-03-05T16:00:18.914Z,49.55
2023-03-05T16:02:45.605Z,49.82
2023-03-05T16:05:12.634Z,49.84
2023-03-05T16:07:44.203Z,50.08
2023-03-05T16:10:14.357Z,49.90
2023-03-05T16:12:43.060Z,50.10
2023-03-05T16:15:16.980Z,50.23
2023-03-05T16:17:45.364Z,50.36
2023-03-05T16:20:12.788Z,50.59
2023-03-05T16:22:40.155Z,50.49
2023-03-05T16:25:07.727Z,50.51
2023-03-05T16:27:34.823Z,50.66
2023-03-05T16:30:01.684Z,50.79
2023-03-05T16:32:28.539Z,50.88
2023-03-05T16:34:55.322Z,51.25
2023-03-05T16:37:23.612Z,50.92
2023-03-05T16:39:50.484Z,51.21
2023-03-05T16:42:17.591Z,51.42
2023-03-05T16:44:44.924Z,51.26
2023-03-05T16:47:12.413Z,51.21
2023-03-05T16:49:39.720Z,51.40
2023-03-05T16:52:18.425Z,51.79
2023-03-05T16:54:45.788Z,51.76
2023-03-05T16:57:12.665Z,51.98
2023-03-05T16:59:39.488Z,52.16
2023-03-05T17:02:06.537Z,52.21
2023-03-05T17:04:33.361Z,52.30
2023-03-05T17:07:00.116Z,52.47
2023-03-05T17:09:26.943Z,52.29
2023-03-05T17:11:54.817Z,52.50
2023-03-05T17:14:21.933Z,52.68
2023-03-05T17:16:48.776Z,52.54
2023-03-05T17:19:15.709Z,52.83
2023-03-05T17:21:43.161Z,52.62
2023-03-05T17:24:10.685Z,52.91
2023-03-05T17:26:38.363Z,53.14
2023-03-05T17:29:05.857Z,52.93
2023-03-05T17:31:33.037Z,53.20
2023-03-05T17:33:59.849Z,53.37
2023-03-05T17:36:26.749Z,53.46
2023-03-05T17:38:53.715Z,53.41
2023-03-05T17:41:23.263Z,53.52
2023-03-05T17:43:50.384Z,53.55
2023-03-05T17:46:19.328Z,53.73
2023-03-05T17:48:46.303Z,53.79
2023-03-05T17:51:17.679Z,53.98
2023-03-05T17:53:44.936Z,53.91
2023-03-05T17:56:13.984Z,54.03
2023-03-05T17:58:40.973Z,54.07
2023-03-05T18:01:08.320Z,54.29
2023-03-05T18:03:37.324Z,54.05
2023-03-05T18:06:05.069Z,54.35
2023-03-05T18:08:32.136Z,54.33
2023-03-05T18:10:59.319Z,54.59
2023-03-05T18:13:26.283Z,54.51
2023-03-05T18:15:53.085Z,54.62
2023-03-05T18:18:19.858Z,54.70
2023-03-05T18:20:48.717Z,54.83
2023-03-05T18:23:15.834Z,55.06
2023-03-05T18:25:44.331Z,54.97
2023-03-05T18:28:13.263Z,54.95
2023-03-05T18:30:41.906Z,55.08
2023-03-05T18:33:17.404Z,55.30
2023-03-05T18:35:44.212Z,55.26
2023-03-05T18:38:11.053Z,55.45
2023-03-05T18:40:39.837Z,55.19
2023-03-05T18:43:06.918Z,55.59
2023-03-05T18:45:34.436Z,55.58
2023-03-05T18:48:02.521Z,55.72
2023-03-05T18:50:32.516Z,55.89
2023-03-05T18:52:59.376Z,55.85
2023-03-05T18:55:29.335Z,55.92
2023-03-05T18:57:56.598Z,55.93
2023-03-05T19:00:26.561Z,56.18
2023-03-05T19:02:54.054Z,56.12
2023-03-05T19:05:21.208Z,56.22
2023-03-05T19:07:48.709Z,56.25
2023-03-05T19:10:16.544Z,56.37
2023-03-05T19:12:49.219Z,56.51
2023-03-05T19:15:16.570Z,56.51
2023-03-05T19:17:43.334Z,56.58
2023-03-05T19:20:14.371Z,56.61
2023-03-05T19:22:41.111Z,56.75
2023-03-05T19:25:08.908Z,56.70
2023-03-05T19:27:35.685Z,56.71
2023-03-05T19:30:02.964Z,56.79
2023-03-05T19:32:29.906Z,56.96
2023-03-05T19:34:58.135Z,57.03
2023-03-05T19:37:25.194Z,57.05
2023-03-05T19:39:51.988Z,57.32
2023-03-05T19:42:19.100Z,57.18
2023-03-05T19:44:46.074Z,57.17
2023-03-05T19:47:12.877Z,57.25
2023-03-05T19:49:39.839Z,57.42
2023-03-05T19:52:07.020Z,57.65
2023-03-05T19:54:34.245Z,57.77
2023-03-05T19:57:01.011Z,57.80
2023-03-05T19:59:28.597Z,57.76
2023-03-05T20:01:57.644Z,57.92
2023-03-05T20:04:25.154Z,58.05
2023-03-05T20:06:52.582Z,58.36
2023-03-05T20:09:19.898Z,58.14
2023-03-05T20:11:50.535Z,58.14
2023-03-05T20:14:17.296Z,58.15
2023-03-05T20:16:44.284Z,58.27
2023-03-05T20:19:16.603Z,58.39
2023-03-05T20:21:44.680Z,58.34
2023-03-05T20:24:14.810Z,58.53
2023-03-05T20:26:43.795Z,58.61
2023-03-05T20:29:11.388Z,58.60
2023-03-05T20:31:38.614Z,58.64
2023-03-05T20:34:07.730Z,58.85
2023-03-05T20:36:34.878Z,58.85
2023-03-05T20:39:05.341Z,58.81
2023-03-05T20:41:34.433Z,58.89
2023-03-05T20:44:01.186Z,59.41
2023-03-05T20:46:31.191Z,59.09
2023-03-05T20:49:00.302Z,59.16
2023-03-05T20:51:33.993Z,59.21
2023-03-05T20:54:04.392Z,59.18
2023-03-05T20:56:32.915Z,59.36
2023-03-05T20:59:01.245Z,59.37
2023-03-05T21:01:30.298Z,59.46
2023-03-05T21:03:57.684Z,59.43
2023-03-05T21:06:25.870Z,59.65
2023-03-05T21:08:52.912Z,59.43
2023-03-05T21:11:20.377Z,59.54
2023-03-05T21:13:47.612Z,59.69
2023-03-05T21:16:17.548Z,59.99
2023-03-05T21:18:44.737Z,60.12
2023-03-05T21:21:11.836Z,59.93
2023-03-05T21:23:38.620Z,60.09
2023-03-05T21:26:05.761Z,60.04
2023-03-05T21:28:33.174Z,60.23
2023-03-05T21:31:07.441Z,60.28
2023-03-05T21:33:34.285Z,60.22
2023-03-05T21:36:01.076Z,60.32
2023-03-05T21:38:30.545Z,60.26
2023-03-05T21:40:58.640Z,60.40
2023-03-05T21:43:26.930Z,60.42
2023-03-05T21:45:54.966Z,60.53
2023-03-05T21:48:22.123Z,60.29
2023-03-05T21:50:49.250Z,60.51
2023-03-05T21:53:19.469Z,60.69
2023-03-05T21:56:07.686Z,60.52
2023-03-05T21:58:35.531Z,60.40
2023-03-05T22:01:02.960Z,60.58
2023-03-05T22:03:30.252Z,60.63
2023-03-05T22:05:57.377Z,60.57
2023-03-05T22:08:24.626Z,60.68
2023-03-05T22:10:51.540Z,60.73
2023-03-05T22:13:20.334Z,60.56
2023-03-05T22:15:50.995Z,60.61
2023-03-05T22:18:23.803Z,60.85
2023-03-05T22:20:50.884Z,60.84
2023-03-05T22:23:18.689Z,60.69
2023-03-05T22:25:45.446Z,60.74
2023-03-05T22:28:12.935Z,60.79
2023-03-05T22:30:46.254Z,60.97
2023-03-05T22:33:13.299Z,61.01
2023-03-05T22:35:41.211Z,61.08
2023-03-05T22:38:09.327Z,60.87
2023-03-05T22:40:37.736Z,60.99
2023-03-05T22:43:04.993Z,61.40
2023-03-05T22:45:31.761Z,61.22
2023-03-05T22:47:58.530Z,61.12
2023-03-05T22:50:25.233Z,61.37
2023-03-05T22:52:52.622Z,61.35
2023-03-05T22:55:19.496Z,61.07
2023-03-05T22:57:46.352Z,61.42
2023-03-05T23:00:23.816Z,61.52
2023-03-05T23:02:51.541Z,61.27
2023-03-05T23:05:19.066Z,61.37
2023-03-05T23:07:46.097Z,61.54
2023-03-05T23:10:17.193Z,61.35
2023-03-05T23:12:46.357Z,61.77
2023-03-05T23:15:15.572Z,61.49
2023-03-05T23:17:43.078Z,61.39
2023-03-05T23:20:11.725Z,61.59
2023-03-05T23:22:40.579Z,61.57
2023-03-05T23:25:07.730Z,61.65
2023-03-05T23:27:34.393Z,61.71
2023-03-05T23:30:19.529Z,61.69
2023-03-05T23:32:49.402Z,61.89
2023-03-05T23:35:22.386Z,61.94
2023-03-05T23:37:49.544Z,61.87
2023-03-05T23:40:19.714Z,61.92
2023-03-05T23:42:46.601Z,61.79
2023-03-05T23:45:16.150Z,61.96
2023-03-05T23:47:43.457Z,61.87
2023-03-05T23:50:16.997Z,62.06
2023-03-05T23:52:44.952Z,62.00
2023-03-05T23:55:20.412Z,62.29
2023-03-05T23:57:47.854Z,62.15
